Whitten, Iowa
Current Conditions -  °F | °C
As of 5:53 AM on Friday 24 Oct 2014 (Local Time) from KMIW Reporting Station
Moderate Fog Moderate Fog  
Wind Chill:   Ceiling: 200
Heat Index:   Visibility: 0.25mi
Dew Point:   Wind: 9mph
Humidity: 100%   Direction: 150°SSE
Pressure: 29.98"   Gusts: NA
Location:  42.26°N, 93.01°W
Report Text: KMIW 241053Z AUTO 15008KT 1/4SM FG VV002 08/08 A2998 RMK AO2 SLP153 T00830083
Loading
Personal Weather Stations






























Interactive Weather Map
Tropical Storm Tracking
New forecast layout! Learn more

10-Day Weather Forecast

Advertisements
Track Severe Weather on mobile